Time;durP1;ratioP1;P1;durP2;ratioP2;P2;SDS_P1;SDS_P2;PMS_P1;PMS_P2;Temp;Humidity;BMP_temperature;BMP_pressure;BME280_temperature;BME280_humidity;BME280_pressure;Samples;Min_cycle;Max_cycle;Signal;HPM_P1;HPM_P2
2021/08/18 00:00:37;;;;;;;8.02;2.70;;;22.80;88.20;;;;;;5010164;28;20349;-48
2021/08/18 00:03:41;;;;;;;5.68;2.53;;;22.80;88.30;;;;;;5009900;28;20041;-48
2021/08/18 00:06:46;;;;;;;6.30;2.50;;;22.80;88.60;;;;;;5009654;28;20041;-50
2021/08/18 00:09:51;;;;;;;6.55;2.40;;;22.80;89.10;;;;;;5019823;28;20040;-48
2021/08/18 00:12:56;;;;;;;5.10;2.72;;;22.80;89.50;;;;;;5029505;28;20056;-48
2021/08/18 00:16:01;;;;;;;10.27;3.70;;;22.70;89.40;;;;;;5028987;28;20048;-48
2021/08/18 00:19:06;;;;;;;7.50;3.90;;;22.70;89.60;;;;;;5029355;28;20056;-50
2021/08/18 00:22:10;;;;;;;10.60;4.47;;;22.70;89.60;;;;;;5029333;28;20048;-47
2021/08/18 00:25:14;;;;;;;10.63;5.50;;;22.70;90.00;;;;;;5029712;28;20056;-54
2021/08/18 00:28:18;;;;;;;10.95;6.63;;;22.60;90.10;;;;;;5029123;28;20415;-49
2021/08/18 00:31:23;;;;;;;10.93;8.43;;;22.40;90.40;;;;;;5029432;28;20048;-48
2021/08/18 00:34:27;;;;;;;6.18;3.10;;;22.30;90.80;;;;;;5029611;28;20049;-48
2021/08/18 00:37:31;;;;;;;6.55;3.45;;;22.10;91.20;;;;;;5029377;28;20049;-50
2021/08/18 00:40:36;;;;;;;6.63;2.63;;;22.00;91.60;;;;;;5029422;28;20044;-48
2021/08/18 00:43:40;;;;;;;8.43;3.25;;;21.90;91.90;;;;;;5029300;28;20044;-48
2021/08/18 00:46:48;;;;;;;5.38;2.58;;;22.00;92.10;;;;;;5028932;28;20040;-49
2021/08/18 00:49:52;;;;;;;7.95;2.97;;;22.00;92.50;;;;;;5029176;28;20045;-48
2021/08/18 00:52:57;;;;;;;10.15;3.22;;;22.10;92.70;;;;;;5033345;28;20060;-49
2021/08/18 00:56:14;;;;;;;11.60;2.95;;;22.10;92.90;;;;;;5033210;28;20048;-54
2021/08/18 00:59:18;;;;;;;6.60;2.70;;;22.20;93.20;;;;;;5032687;28;20045;-53
2021/08/18 01:02:23;;;;;;;5.50;2.72;;;22.20;93.40;;;;;;5032866;28;20036;-49
2021/08/18 01:05:31;;;;;;;6.75;3.17;;;22.10;93.50;;;;;;5032824;28;20507;-50
2021/08/18 01:08:35;;;;;;;10.73;3.10;;;22.10;93.80;;;;;;5032355;28;20044;-48
2021/08/18 01:11:41;;;;;;;9.32;3.97;;;22.10;93.70;;;;;;4993463;28;20055;-50
2021/08/18 01:14:45;;;;;;;9.18;3.28;;;22.00;93.70;;;;;;4993344;28;20065;-52
2021/08/18 01:17:51;;;;;;;9.68;3.53;;;22.00;94.00;;;;;;4992764;28;20045;-48
2021/08/18 01:20:56;;;;;;;9.50;3.35;;;21.90;94.20;;;;;;4993702;28;20523;-49
2021/08/18 01:24:01;;;;;;;6.75;2.75;;;21.90;94.30;;;;;;4993111;28;20049;-52
2021/08/18 01:27:07;;;;;;;9.55;2.97;;;21.90;94.30;;;;;;4993327;28;20041;-49
2021/08/18 01:30:11;;;;;;;6.15;3.17;;;21.90;94.40;;;;;;4993081;28;20098;-48
2021/08/18 01:33:17;;;;;;;7.38;4.70;;;21.90;94.50;;;;;;4993196;28;20045;-48
2021/08/18 01:36:22;;;;;;;6.90;4.82;;;21.80;94.40;;;;;;4993246;28;20045;-48
2021/08/18 01:39:27;;;;;;;7.20;3.88;;;21.70;94.10;;;;;;4992675;28;20049;-49
2021/08/18 01:42:31;;;;;;;3.67;2.35;;;21.60;93.70;;;;;;5008378;28;20056;-48
2021/08/18 01:45:41;;;;;;;7.97;2.90;;;21.60;93.50;;;;;;5031154;28;20629;-48
2021/08/18 01:48:45;;;;;;;6.10;2.17;;;21.60;93.30;;;;;;5012181;28;20041;-47
2021/08/18 01:51:49;;;;;;;3.47;2.30;;;21.50;93.00;;;;;;5028630;28;20040;-49
2021/08/18 01:54:53;;;;;;;4.82;1.95;;;21.50;92.60;;;;;;5031994;28;20053;-48
2021/08/18 01:57:59;;;;;;;4.63;2.63;;;21.50;92.40;;;;;;5027287;28;20036;-48
2021/08/18 02:01:06;;;;;;;5.88;2.80;;;21.50;92.20;;;;;;5030570;28;20049;-49
2021/08/18 02:04:10;;;;;;;6.63;3.20;;;21.60;92.10;;;;;;4992236;28;20045;-52
2021/08/18 02:07:14;;;;;;;5.65;3.15;;;21.60;92.00;;;;;;5014001;28;20044;-49
2021/08/18 02:10:19;;;;;;;6.68;3.42;;;21.60;92.10;;;;;;5023651;28;20061;-51
2021/08/18 02:13:23;;;;;;;4.57;3.00;;;21.60;92.20;;;;;;5022496;28;20041;-48
2021/08/18 02:16:27;;;;;;;4.03;3.10;;;21.60;92.30;;;;;;5026978;28;20048;-49
2021/08/18 02:19:32;;;;;;;9.50;3.53;;;21.60;92.30;;;;;;5017017;28;20052;-53
2021/08/18 02:22:37;;;;;;;7.93;3.42;;;21.50;92.30;;;;;;5016475;28;20048;-48
2021/08/18 02:25:42;;;;;;;7.97;3.13;;;21.20;95.30;;;;;;5031777;28;20113;-47
2021/08/18 02:28:47;;;;;;;4.72;2.83;;;21.00;95.20;;;;;;5031194;28;20072;-50
2021/08/18 02:31:50;;;;;;;6.07;3.33;;;20.80;95.30;;;;;;5021120;28;20077;-48
2021/08/18 02:34:55;;;;;;;7.05;3.13;;;20.70;95.30;;;;;;5011647;28;20044;-48
2021/08/18 02:38:00;;;;;;;5.15;3.28;;;20.70;95.70;;;;;;5011302;28;20053;-48
2021/08/18 02:41:04;;;;;;;7.32;3.30;;;20.70;96.70;;;;;;5011809;28;20420;-52
2021/08/18 02:44:08;;;;;;;6.18;4.05;;;20.60;97.20;;;;;;5011687;28;20499;-48
2021/08/18 02:47:12;;;;;;;6.35;3.20;;;20.60;97.20;;;;;;5011510;28;20049;-48
2021/08/18 02:50:20;;;;;;;5.70;3.50;;;20.60;98.00;;;;;;5031330;28;20511;-48
2021/08/18 02:53:24;;;;;;;7.40;3.45;;;20.60;98.10;;;;;;5031288;28;20037;-48
2021/08/18 02:56:28;;;;;;;5.10;2.72;;;20.60;98.30;;;;;;5031196;28;20056;-50
2021/08/18 02:59:32;;;;;;;8.15;3.97;;;20.60;98.30;;;;;;5030706;28;20057;-52
2021/08/18 03:02:39;;;;;;;7.40;3.50;;;20.60;98.20;;;;;;5031325;28;20403;-51
2021/08/18 03:05:43;;;;;;;9.00;4.28;;;20.60;98.10;;;;;;5031071;28;20234;-51
2021/08/18 03:08:47;;;;;;;6.72;3.78;;;20.60;98.20;;;;;;5030571;28;20060;-49
2021/08/18 03:11:52;;;;;;;6.50;4.10;;;20.50;98.20;;;;;;5030772;28;20044;-50
2021/08/18 03:14:56;;;;;;;7.72;3.25;;;20.50;98.20;;;;;;5029680;28;20044;-52
2021/08/18 03:18:01;;;;;;;12.52;7.47;;;20.40;98.20;;;;;;5030373;28;20048;-49
2021/08/18 03:21:05;;;;;;;11.50;8.50;;;20.40;98.10;;;;;;5030558;28;20040;-49
2021/08/18 03:24:11;;;;;;;11.68;8.82;;;20.40;97.90;;;;;;5011242;28;20129;-48
2021/08/18 03:27:15;;;;;;;10.93;7.47;;;20.40;97.70;;;;;;5010800;28;20036;-49
2021/08/18 03:30:19;;;;;;;8.98;5.53;;;20.40;97.40;;;;;;5010426;28;20037;-48
2021/08/18 03:33:23;;;;;;;6.38;4.72;;;20.40;97.00;;;;;;5010472;28;20041;-48
2021/08/18 03:36:28;;;;;;;7.70;4.85;;;20.40;96.50;;;;;;5010535;28;20041;-50
2021/08/18 03:39:31;;;;;;;4.93;2.88;;;20.40;96.30;;;;;;5009733;28;20045;-48
2021/08/18 03:42:36;;;;;;;7.35;3.30;;;20.40;96.10;;;;;;5010295;28;20049;-49
2021/08/18 03:45:40;;;;;;;6.60;4.22;;;20.50;96.00;;;;;;5010243;28;20045;-48
2021/08/18 03:48:44;;;;;;;23.77;3.42;;;20.50;95.50;;;;;;5009710;28;20064;-48
2021/08/18 03:51:48;;;;;;;9.77;5.72;;;20.50;95.20;;;;;;5010279;28;20052;-49
2021/08/18 03:54:52;;;;;;;7.97;7.00;;;20.50;94.90;;;;;;5010374;28;20408;-52
2021/08/18 03:57:57;;;;;;;9.77;7.60;;;20.50;94.80;;;;;;5009850;28;20057;-49
2021/08/18 04:01:02;;;;;;;10.65;7.30;;;20.50;94.40;;;;;;5009647;28;20447;-49
2021/08/18 04:04:06;;;;;;;11.23;5.60;;;20.40;94.50;;;;;;5009997;28;20408;-49
2021/08/18 04:07:10;;;;;;;8.32;4.90;;;20.30;94.10;;;;;;5009913;28;20048;-52
2021/08/18 04:10:14;;;;;;;10.43;4.70;;;20.20;94.50;;;;;;5009568;28;20060;-54
2021/08/18 04:13:19;;;;;;;7.82;4.07;;;20.10;94.30;;;;;;5010027;28;20049;-52
2021/08/18 04:16:23;;;;;;;7.28;3.97;;;20.10;94.40;;;;;;5009882;28;20118;-49
2021/08/18 04:19:27;;;;;;;6.45;3.30;;;20.00;94.30;;;;;;5009315;28;20408;-51
2021/08/18 04:22:31;;;;;;;4.40;2.58;;;19.90;94.40;;;;;;5015762;28;20045;-48
2021/08/18 04:25:37;;;;;;;7.30;4.90;;;19.90;94.10;;;;;;5028915;28;20052;-49
2021/08/18 04:28:42;;;;;;;10.27;4.47;;;19.90;94.50;;;;;;5029213;28;20048;-51
2021/08/18 04:31:46;;;;;;;6.28;2.88;;;19.90;94.00;;;;;;5028826;28;20056;-48
2021/08/18 04:34:50;;;;;;;4.78;2.47;;;20.00;93.50;;;;;;5029236;28;20049;-49
2021/08/18 04:37:54;;;;;;;4.97;2.35;;;20.00;93.30;;;;;;5029146;28;20049;-49
2021/08/18 04:40:58;;;;;;;5.03;1.83;;;20.10;92.80;;;;;;5028875;28;20040;-47
2021/08/18 04:44:03;;;;;;;8.98;2.30;;;20.20;92.60;;;;;;5029200;28;20037;-48
2021/08/18 04:47:08;;;;;;;7.22;2.60;;;20.20;92.40;;;;;;5029299;28;20510;-48
2021/08/18 04:50:13;;;;;;;3.70;2.30;;;20.30;92.80;;;;;;5028353;28;20048;-48
2021/08/18 04:53:17;;;;;;;7.75;2.80;;;20.30;92.70;;;;;;5029394;28;20419;-51
2021/08/18 04:56:21;;;;;;;10.32;3.50;;;20.20;93.30;;;;;;5029219;28;20052;-48
2021/08/18 04:59:26;;;;;;;13.93;3.00;;;20.20;93.60;;;;;;5028799;28;20056;-49
2021/08/18 05:02:34;;;;;;;4.53;2.13;;;20.20;93.60;;;;;;5029007;28;20064;-51
2021/08/18 05:05:38;;;;;;;6.63;2.53;;;20.20;93.70;;;;;;5029047;28;20490;-54
2021/08/18 05:08:41;;;;;;;5.88;2.40;;;20.30;93.90;;;;;;5028944;28;20407;-52
2021/08/18 05:11:46;;;;;;;6.93;2.92;;;20.30;94.90;;;;;;5028452;28;20047;-48
2021/08/18 05:14:50;;;;;;;9.38;2.40;;;20.30;95.00;;;;;;5029292;28;20048;-48
2021/08/18 05:17:54;;;;;;;10.65;2.90;;;20.40;95.20;;;;;;5028763;28;20044;-46
2021/08/18 05:20:58;;;;;;;6.28;2.80;;;22.00;94.60;;;;;;5028551;28;20033;-50
2021/08/18 05:24:02;;;;;;;7.20;2.25;;;24.70;92.00;;;;;;5010311;28;20041;-48
2021/08/18 05:27:07;;;;;;;5.82;2.17;;;26.70;87.70;;;;;;5009307;28;20065;-50
2021/08/18 05:30:13;;;;;;;5.03;2.40;;;27.50;83.00;;;;;;5008466;28;20049;-50
2021/08/18 05:33:18;;;;;;;8.35;2.72;;;28.60;79.60;;;;;;5006798;28;20045;-48
2021/08/18 05:36:23;;;;;;;9.43;2.63;;;29.00;78.70;;;;;;5008706;28;20056;-48
2021/08/18 05:39:27;;;;;;;5.88;2.80;;;30.30;76.20;;;;;;5012113;28;20049;-48
2021/08/18 05:42:31;;;;;;;7.90;3.47;;;30.10;74.60;;;;;;5012574;28;20045;-49
2021/08/18 05:45:36;;;;;;;7.78;3.17;;;31.10;74.40;;;;;;5012094;28;20045;-48
2021/08/18 05:48:41;;;;;;;8.93;2.30;;;31.70;72.40;;;;;;5012029;28;20044;-50
2021/08/18 05:51:45;;;;;;;4.28;2.17;;;32.40;71.50;;;;;;5011781;28;20050;-52
2021/08/18 05:54:50;;;;;;;8.98;3.13;;;31.90;71.30;;;;;;5012404;28;20065;-49
2021/08/18 05:57:53;;;;;;;4.95;2.65;;;30.80;70.80;;;;;;5012212;28;20049;-52
2021/08/18 06:00:59;;;;;;;7.22;2.50;;;30.50;71.40;;;;;;5010820;28;20049;-48
2021/08/18 06:04:03;;;;;;;5.97;3.03;;;30.30;72.10;;;;;;5012329;28;20041;-48
2021/08/18 06:07:07;;;;;;;3.53;2.15;;;31.00;71.50;;;;;;5012118;28;20041;-50
2021/08/18 06:10:11;;;;;;;6.93;2.53;;;30.70;70.80;;;;;;5011970;28;20053;-49
2021/08/18 06:13:15;;;;;;;4.88;2.40;;;30.60;71.40;;;;;;5012537;28;20049;-49
2021/08/18 06:16:20;;;;;;;11.02;2.90;;;31.90;70.00;;;;;;5012255;28;20048;-49
2021/08/18 06:19:26;;;;;;;9.57;2.42;;;32.60;68.70;;;;;;5012020;28;20447;-47
2021/08/18 06:22:30;;;;;;;8.52;2.40;;;33.20;68.00;;;;;;5011776;28;20056;-46
2021/08/18 06:25:34;;;;;;;5.30;2.30;;;33.70;67.60;;;;;;5011775;28;20044;-48
2021/08/18 06:28:38;;;;;;;5.78;2.10;;;34.10;66.30;;;;;;5011890;28;20049;-47
2021/08/18 06:31:42;;;;;;;8.32;2.28;;;34.40;65.80;;;;;;5011190;28;20055;-48
2021/08/18 06:34:46;;;;;;;4.70;2.10;;;34.10;65.70;;;;;;5011838;28;20455;-47
2021/08/18 06:37:50;;;;;;;4.35;2.65;;;31.90;66.40;;;;;;5011692;28;20057;-52
2021/08/18 06:40:54;;;;;;;4.45;2.20;;;29.20;71.70;;;;;;5011402;28;20057;-46
2021/08/18 06:43:58;;;;;;;6.15;2.80;;;29.80;71.60;;;;;;5011700;28;20412;-48
2021/08/18 06:47:04;;;;;;;5.75;2.60;;;29.30;71.40;;;;;;5011535;28;20048;-48
2021/08/18 06:50:09;;;;;;;7.15;2.45;;;28.50;72.90;;;;;;5011458;28;20045;-48
2021/08/18 06:53:13;;;;;;;7.07;3.13;;;29.60;71.30;;;;;;5011251;28;20045;-47
2021/08/18 06:56:17;;;;;;;5.00;2.78;;;29.30;71.40;;;;;;5011495;28;20052;-47
2021/08/18 06:59:21;;;;;;;8.25;2.55;;;29.20;72.20;;;;;;5011265;28;20045;-51
2021/08/18 07:02:25;;;;;;;6.88;2.35;;;29.90;71.40;;;;;;5011084;28;20072;-49
2021/08/18 07:05:32;;;;;;;8.27;2.63;;;29.30;72.60;;;;;;5011247;28;20545;-47
2021/08/18 07:08:37;;;;;;;8.45;2.55;;;28.30;75.30;;;;;;5010927;28;20121;-47
2021/08/18 07:11:41;;;;;;;9.98;2.65;;;29.10;74.40;;;;;;5010705;28;20046;-53
2021/08/18 07:14:46;;;;;;;5.65;2.45;;;29.90;73.20;;;;;;5011040;28;20550;-49
2021/08/18 07:17:50;;;;;;;6.78;2.60;;;29.70;72.50;;;;;;5010770;28;20040;-53
2021/08/18 07:20:54;;;;;;;5.82;2.45;;;30.80;71.80;;;;;;5011084;28;20048;-47
2021/08/18 07:23:58;;;;;;;5.70;2.40;;;32.10;70.40;;;;;;5029279;28;20514;-47
2021/08/18 07:27:04;;;;;;;12.32;2.40;;;32.40;67.50;;;;;;4991959;28;20068;-47
2021/08/18 07:30:08;;;;;;;8.35;1.90;;;32.70;67.30;;;;;;5001103;28;20113;-50
2021/08/18 07:33:12;;;;;;;9.05;2.60;;;32.20;66.00;;;;;;5004386;28;20412;-50
2021/08/18 07:36:16;;;;;;;6.53;2.00;;;32.90;66.70;;;;;;5010786;28;20060;-48
2021/08/18 07:39:21;;;;;;;5.38;2.33;;;33.10;65.50;;;;;;5002472;28;20046;-50
2021/08/18 07:42:25;;;;;;;7.65;2.13;;;34.70;63.50;;;;;;5004077;28;20404;-47
2021/08/18 07:45:30;;;;;;;4.55;1.98;;;35.20;61.80;;;;;;5009378;28;20036;-49
2021/08/18 07:48:34;;;;;;;5.78;2.33;;;36.60;60.00;;;;;;5009710;28;20519;-48
2021/08/18 07:51:38;;;;;;;4.38;2.00;;;34.10;61.50;;;;;;5009162;28;20048;-49
2021/08/18 07:54:42;;;;;;;5.57;2.30;;;34.90;61.10;;;;;;5010173;28;20041;-47
2021/08/18 07:57:46;;;;;;;6.43;2.03;;;34.10;61.50;;;;;;5009951;28;20053;-47
2021/08/18 08:00:51;;;;;;;6.45;1.83;;;35.30;60.50;;;;;;5009453;28;20432;-50
2021/08/18 08:03:55;;;;;;;5.43;2.08;;;35.60;59.60;;;;;;5009573;28;20041;-49
2021/08/18 08:06:59;;;;;;;4.97;1.98;;;36.40;59.10;;;;;;5009990;28;20400;-49
2021/08/18 08:10:08;;;;;;;5.40;2.53;;;35.80;59.60;;;;;;5009697;28;20053;-48
2021/08/18 08:13:12;;;;;;;4.38;2.50;;;35.30;59.30;;;;;;5009308;28;20365;-48
2021/08/18 08:16:16;;;;;;;5.30;2.15;;;34.20;60.90;;;;;;5002625;28;20049;-48
2021/08/18 08:19:22;;;;;;;5.00;2.00;;;37.00;59.00;;;;;;5009278;28;20056;-51
2021/08/18 08:22:26;;;;;;;5.63;2.00;;;37.90;56.90;;;;;;5014948;28;20041;-49
2021/08/18 08:25:31;;;;;;;5.35;1.88;;;39.10;55.80;;;;;;5029407;28;20411;-47
2021/08/18 08:28:35;;;;;;;4.13;2.05;;;38.30;56.30;;;;;;5029156;28;20514;-48
2021/08/18 08:31:42;;;;;;;5.90;2.00;;;37.80;55.60;;;;;;5029267;28;20056;-50
2021/08/18 08:34:46;;;;;;;4.47;1.80;;;37.70;56.30;;;;;;5029301;28;20036;-53
2021/08/18 08:37:50;;;;;;;6.82;1.73;;;36.80;56.80;;;;;;5029173;28;20084;-51
2021/08/18 08:40:54;;;;;;;3.28;1.58;;;37.20;56.60;;;;;;5029405;28;20044;-47
2021/08/18 08:43:58;;;;;;;3.75;2.00;;;36.70;56.60;;;;;;5029171;28;20040;-47
2021/08/18 08:47:03;;;;;;;3.60;2.10;;;38.60;55.10;;;;;;5029979;28;20514;-47
2021/08/18 08:50:13;;;;;;;3.92;2.00;;;38.50;54.50;;;;;;5029240;28;20533;-48
2021/08/18 08:53:18;;;;;;;6.20;1.90;;;37.80;55.20;;;;;;5021256;28;20052;-48
2021/08/18 08:56:22;;;;;;;3.25;1.92;;;35.60;57.40;;;;;;5009934;28;20045;-47
2021/08/18 08:59:26;;;;;;;4.43;1.98;;;36.60;55.50;;;;;;5009081;28;20057;-47
2021/08/18 09:02:30;;;;;;;4.85;1.60;;;39.00;54.10;;;;;;5009313;28;20416;-46
2021/08/18 09:05:35;;;;;;;3.53;1.40;;;38.40;51.70;;;;;;5009473;28;20049;-47
2021/08/18 09:08:51;;;;;;;4.53;1.63;;;38.60;52.10;;;;;;5019446;28;20045;-49
2021/08/18 09:12:06;;;;;;;5.20;1.80;;;38.20;53.80;;;;;;5009331;28;20041;-48
2021/08/18 09:15:19;;;;;;;3.47;1.92;;;39.00;53.20;;;;;;5012988;28;20049;-49
2021/08/18 09:18:36;;;;;;;2.80;1.60;;;40.80;51.70;;;;;;5005423;28;20511;-49
2021/08/18 09:21:42;;;;;;;5.30;1.55;;;43.10;49.60;;;;;;5006188;28;20049;-53
2021/08/18 09:24:46;;;;;;;7.88;1.70;;;44.30;49.00;;;;;;5012445;28;20044;-49
2021/08/18 09:28:13;;;;;;;6.38;1.90;;;45.10;48.70;;;;;;4993129;28;20045;-48
2021/08/18 09:31:24;;;;;;;4.07;1.73;;;46.70;48.40;;;;;;4993456;28;20049;-50
2021/08/18 09:34:28;;;;;;;4.57;1.80;;;47.50;47.80;;;;;;4992605;28;20527;-49
2021/08/18 09:37:35;;;;;;;7.15;1.83;;;48.70;46.80;;;;;;4993125;28;20049;-50
2021/08/18 09:40:40;;;;;;;5.38;1.80;;;48.60;46.60;;;;;;4992236;28;20049;-49
2021/08/18 09:43:45;;;;;;;4.03;1.70;;;48.30;46.50;;;;;;4992713;28;20516;-49
2021/08/18 09:47:05;;;;;;;7.22;1.98;;;48.20;46.40;;;;;;4991941;28;20045;-52
2021/08/18 09:50:09;;;;;;;6.70;1.77;;;49.50;45.80;;;;;;4992953;28;20042;-49
2021/08/18 09:53:24;;;;;;;6.03;1.75;;;50.50;45.00;;;;;;4992874;28;20423;-51
2021/08/18 09:56:43;;;;;;;5.68;1.70;;;50.60;44.20;;;;;;4993067;28;20516;-49
2021/08/18 09:59:48;;;;;;;3.83;1.73;;;48.80;43.80;;;;;;5011663;28;20057;-49
2021/08/18 10:02:53;;;;;;;4.93;1.90;;;48.80;44.30;;;;;;5007274;28;20049;-52
2021/08/18 10:05:58;;;;;;;3.80;1.48;;;46.60;43.90;;;;;;5016273;28;20512;-55
2021/08/18 10:09:04;;;;;;;5.72;1.65;;;47.80;43.80;;;;;;5000231;28;20141;-52
2021/08/18 10:12:09;;;;;;;2.85;1.38;;;49.20;43.80;;;;;;5003351;28;20419;-53
2021/08/18 10:15:13;;;;;;;6.75;1.70;;;50.40;43.30;;;;;;4990128;28;20057;-50
2021/08/18 10:18:44;;;;;;;3.25;2.10;;;44.00;43.50;;;;;;4990661;28;20057;-53
2021/08/18 10:21:49;;;;;;;4.05;1.63;;;37.70;49.80;;;;;;4991498;28;20042;-50
2021/08/18 10:24:53;;;;;;;4.68;1.48;;;41.90;48.40;;;;;;5030791;28;20116;-52
2021/08/18 10:27:57;;;;;;;7.10;1.55;;;45.40;46.10;;;;;;5031424;28;20109;-53
2021/08/18 10:31:01;;;;;;;2.30;1.40;;;43.80;46.00;;;;;;5031168;28;20514;-53
2021/08/18 10:34:06;;;;;;;3.47;1.50;;;44.90;45.70;;;;;;5030921;28;20406;-52
2021/08/18 10:37:25;;;;;;;3.75;1.58;;;40.20;46.90;;;;;;5031212;28;20044;-51
2021/08/18 10:40:35;;;;;;;5.90;1.55;;;42.70;47.40;;;;;;5030952;28;20415;-54
2021/08/18 10:44:00;;;;;;;2.80;1.50;;;41.20;47.00;;;;;;5031302;28;20044;-52
2021/08/18 10:47:16;;;;;;;4.68;1.48;;;42.60;47.30;;;;;;5030322;28;20040;-51
2021/08/18 10:50:23;;;;;;;3.75;1.48;;;43.40;47.10;;;;;;5030915;28;20048;-50
2021/08/18 10:53:29;;;;;;;4.25;1.55;;;45.90;45.90;;;;;;5030961;28;20053;-55
2021/08/18 10:56:46;;;;;;;3.75;1.45;;;45.20;44.50;;;;;;5030847;28;20072;-54
2021/08/18 10:59:52;;;;;;;2.35;1.50;;;43.90;45.50;;;;;;5030777;28;20044;-51
2021/08/18 11:03:07;;;;;;;2.65;1.33;;;46.00;45.10;;;;;;5030639;28;20056;-50
2021/08/18 11:06:12;;;;;;;1.92;1.27;;;47.90;44.50;;;;;;5030755;28;20601;-51
2021/08/18 11:09:49;;;;;;;6.07;1.05;;;48.70;44.00;;;;;;5030884;28;20053;-50
2021/08/18 11:12:57;;;;;;;4.35;1.30;;;46.70;43.40;;;;;;5030633;28;20052;-56
2021/08/18 11:16:17;;;;;;;4.83;1.33;;;41.40;45.50;;;;;;5030337;28;20040;-52
2021/08/18 11:19:22;;;;;;;2.75;1.48;;;41.80;47.20;;;;;;5029897;28;20045;-49
2021/08/18 11:22:27;;;;;;;1.88;1.10;;;43.00;47.00;;;;;;5024817;28;20044;-50
2021/08/18 11:25:44;;;;;;;5.97;1.33;;;45.50;46.10;;;;;;5010685;28;20047;-53
2021/08/18 11:29:18;;;;;;;1.85;1.20;;;47.00;45.30;;;;;;5010671;28;20063;-50
2021/08/18 11:32:26;;;;;;;2.13;1.20;;;44.90;45.00;;;;;;5010553;28;20057;-53
2021/08/18 11:35:36;;;;;;;5.18;1.60;;;43.60;46.20;;;;;;5009616;28;20052;-50
2021/08/18 11:38:40;;;;;;;4.57;1.30;;;41.40;45.50;;;;;;5010261;28;20045;-53
2021/08/18 11:41:47;;;;;;;2.05;1.25;;;42.40;46.70;;;;;;5010505;28;20048;-52
2021/08/18 11:45:04;;;;;;;1.92;1.10;;;42.60;47.00;;;;;;5010144;28;20068;-51
2021/08/18 11:48:11;;;;;;;4.32;1.40;;;43.80;46.30;;;;;;5009872;28;20132;-52
2021/08/18 11:51:19;;;;;;;4.70;1.20;;;43.00;45.90;;;;;;5010257;28;20045;-49
2021/08/18 11:54:25;;;;;;;4.13;1.48;;;45.80;45.00;;;;;;5010013;28;20400;-49
2021/08/18 11:57:30;;;;;;;2.33;1.38;;;46.60;44.30;;;;;;5010321;28;20555;-50
2021/08/18 12:00:35;;;;;;;3.45;1.10;;;45.30;44.70;;;;;;5009845;28;20133;-53
2021/08/18 12:03:40;;;;;;;2.15;1.30;;;46.60;44.40;;;;;;5010086;28;20037;-52
2021/08/18 12:06:46;;;;;;;1.80;1.10;;;47.80;43.60;;;;;;5020244;28;20037;-53
2021/08/18 12:10:14;;;;;;;3.80;1.40;;;47.70;43.40;;;;;;5009728;28;20064;-50
2021/08/18 12:13:21;;;;;;;2.45;1.30;;;48.50;43.70;;;;;;5009430;28;20045;-52
2021/08/18 12:16:31;;;;;;;4.18;1.30;;;47.60;43.20;;;;;;5010047;28;20049;-50
2021/08/18 12:19:38;;;;;;;4.68;1.00;;;48.60;43.50;;;;;;5009862;28;20057;-53
2021/08/18 12:22:43;;;;;;;1.92;1.08;;;49.50;42.80;;;;;;5017581;28;20044;-49
2021/08/18 12:25:48;;;;;;;4.55;1.20;;;49.60;42.40;;;;;;5029618;28;20057;-53
2021/08/18 12:28:55;;;;;;;2.95;1.65;;;49.50;42.20;;;;;;5029583;28;20411;-50
2021/08/18 12:32:11;;;;;;;1.65;1.30;;;49.30;42.10;;;;;;5029887;28;20041;-54
2021/08/18 12:35:18;;;;;;;3.25;1.38;;;48.30;42.40;;;;;;5028942;28;20040;-54
2021/08/18 12:38:22;;;;;;;5.15;1.50;;;47.30;43.10;;;;;;5029338;28;20036;-50
2021/08/18 12:41:31;;;;;;;3.05;1.25;;;46.20;43.60;;;;;;5028516;28;20550;-54
2021/08/18 12:44:38;;;;;;;2.90;1.55;;;45.40;44.30;;;;;;5029120;28;20045;-51
2021/08/18 12:47:54;;;;;;;3.20;1.50;;;43.90;44.70;;;;;;5031578;28;20044;-51
2021/08/18 12:51:04;;;;;;;2.63;1.40;;;43.70;45.10;;;;;;5032446;28;20045;-49
2021/08/18 12:54:09;;;;;;;7.65;1.50;;;44.90;44.70;;;;;;5021157;28;20279;-51
2021/08/18 12:57:14;;;;;;;3.63;1.45;;;45.40;44.50;;;;;;5032176;28;20052;-51
2021/08/18 13:00:20;;;;;;;7.93;1.98;;;45.40;44.40;;;;;;5032856;28;20411;-51
2021/08/18 13:03:24;;;;;;;4.13;1.50;;;45.70;44.40;;;;;;5033366;28;20052;-52
2021/08/18 13:06:28;;;;;;;6.57;1.38;;;46.10;43.90;;;;;;5032950;28;20049;-49
2021/08/18 13:09:33;;;;;;;2.55;1.70;;;45.80;44.10;;;;;;5032816;28;20052;-49
2021/08/18 13:12:39;;;;;;;2.75;1.52;;;45.60;44.30;;;;;;5043365;28;20056;-52
2021/08/18 13:15:44;;;;;;;2.63;1.67;;;44.20;44.40;;;;;;5032788;28;20056;-50
2021/08/18 13:18:48;;;;;;;2.83;1.33;;;44.00;45.30;;;;;;5032708;28;20092;-52
2021/08/18 13:21:53;;;;;;;3.00;1.42;;;43.80;45.70;;;;;;5031960;28;20068;-51
2021/08/18 13:24:57;;;;;;;3.78;1.88;;;41.60;45.30;;;;;;5012767;28;20048;-53
2021/08/18 13:28:03;;;;;;;6.38;1.67;;;40.60;48.30;;;;;;5012470;28;20046;-53
2021/08/18 13:31:09;;;;;;;5.45;1.70;;;40.80;47.90;;;;;;5012797;28;20053;-52
2021/08/18 13:34:14;;;;;;;2.17;1.80;;;40.70;48.20;;;;;;5017993;28;20064;-52
2021/08/18 13:37:21;;;;;;;2.00;1.30;;;40.80;47.70;;;;;;5016517;28;20049;-49
2021/08/18 13:40:25;;;;;;;3.40;1.52;;;39.30;48.80;;;;;;5042766;28;20048;-52
2021/08/18 13:43:29;;;;;;;8.88;1.77;;;39.70;49.10;;;;;;5015290;28;20153;-52
2021/08/18 13:46:34;;;;;;;4.40;1.63;;;39.30;49.10;;;;;;5012423;28;20033;-52
2021/08/18 13:49:38;;;;;;;5.05;1.77;;;38.60;49.20;;;;;;5012270;28;20045;-49
2021/08/18 13:52:43;;;;;;;4.35;1.85;;;38.10;49.80;;;;;;4993090;28;20057;-52
2021/08/18 13:55:47;;;;;;;3.88;1.63;;;35.90;51.40;;;;;;4992705;28;20058;-50
2021/08/18 13:58:51;;;;;;;4.03;1.83;;;36.80;52.10;;;;;;4991846;28;20041;-50
2021/08/18 14:01:55;;;;;;;8.85;2.40;;;38.10;51.20;;;;;;4992395;28;20045;-49
2021/08/18 14:05:00;;;;;;;5.30;2.00;;;38.30;50.50;;;;;;4992502;28;20041;-51
2021/08/18 14:08:10;;;;;;;2.75;1.70;;;38.50;50.10;;;;;;5009694;28;20045;-51
2021/08/18 14:11:14;;;;;;;4.55;1.70;;;38.70;50.20;;;;;;5031481;28;20671;-49
2021/08/18 14:14:20;;;;;;;8.15;1.88;;;39.30;49.60;;;;;;5026668;28;20032;-49
2021/08/18 14:17:26;;;;;;;3.97;1.83;;;39.10;49.40;;;;;;5017577;28;20215;-54
2021/08/18 14:20:31;;;;;;;4.13;2.00;;;38.10;49.40;;;;;;5029435;28;20232;-53
2021/08/18 14:23:36;;;;;;;5.57;1.73;;;38.10;49.70;;;;;;5023575;28;20040;-52
2021/08/18 14:26:41;;;;;;;3.25;1.75;;;37.40;50.10;;;;;;5022578;28;20056;-49
2021/08/18 14:29:45;;;;;;;3.58;1.40;;;37.30;50.50;;;;;;5011794;28;20044;-51
2021/08/18 14:32:49;;;;;;;2.47;1.60;;;37.50;50.30;;;;;;4992181;28;20061;-52
2021/08/18 14:35:55;;;;;;;4.40;1.48;;;38.00;49.90;;;;;;4992235;28;20065;-54
2021/08/18 14:39:00;;;;;;;4.60;1.90;;;38.00;49.90;;;;;;5000052;28;20052;-52
2021/08/18 14:42:05;;;;;;;5.68;1.65;;;37.90;50.10;;;;;;5031071;28;20040;-48
2021/08/18 14:45:12;;;;;;;8.65;2.20;;;37.20;50.70;;;;;;5030215;28;20060;-53
2021/08/18 14:48:16;;;;;;;3.65;2.20;;;36.60;50.60;;;;;;5030569;28;20039;-50
2021/08/18 14:51:22;;;;;;;4.20;1.85;;;35.10;52.50;;;;;;5030932;28;20048;-53
2021/08/18 14:54:25;;;;;;;7.78;1.80;;;34.70;53.30;;;;;;5031088;28;20060;-52
2021/08/18 14:57:31;;;;;;;2.42;1.70;;;34.50;53.20;;;;;;5014181;28;20420;-48
2021/08/18 15:00:35;;;;;;;3.67;1.85;;;34.30;53.70;;;;;;5010823;28;20056;-53
2021/08/18 15:03:39;;;;;;;6.47;2.00;;;34.30;53.60;;;;;;5011159;28;20525;-51
2021/08/18 15:06:43;;;;;;;8.02;2.20;;;34.30;53.70;;;;;;5010878;28;20519;-48
2021/08/18 15:09:48;;;;;;;2.65;1.50;;;34.10;53.80;;;;;;5010453;28;20048;-52
2021/08/18 15:12:51;;;;;;;2.47;1.83;;;33.90;54.20;;;;;;5021324;28;20045;-48
2021/08/18 15:15:56;;;;;;;2.55;1.70;;;34.20;54.20;;;;;;5010335;28;20506;-49
2021/08/18 15:19:01;;;;;;;3.78;1.95;;;34.30;54.20;;;;;;5010211;28;20037;-53
2021/08/18 15:22:08;;;;;;;7.63;2.13;;;34.20;54.20;;;;;;5010885;28;20420;-54
2021/08/18 15:25:14;;;;;;;8.90;1.95;;;34.50;53.70;;;;;;5010866;28;20408;-50
2021/08/18 15:28:18;;;;;;;2.47;1.75;;;34.30;54.40;;;;;;5010035;28;20511;-48
2021/08/18 15:31:22;;;;;;;3.67;1.83;;;34.30;53.80;;;;;;5024701;28;20052;-50
2021/08/18 15:34:27;;;;;;;2.67;1.85;;;34.30;54.00;;;;;;5030464;28;20041;-51
2021/08/18 15:37:31;;;;;;;5.95;1.73;;;34.30;54.10;;;;;;5029935;28;20044;-49
2021/08/18 15:40:36;;;;;;;5.75;2.20;;;34.20;53.80;;;;;;5030310;28;20053;-49
2021/08/18 15:43:44;;;;;;;2.80;1.85;;;33.90;54.10;;;;;;5030352;28;20044;-54
2021/08/18 15:46:50;;;;;;;4.90;1.95;;;33.40;54.90;;;;;;5030418;28;20052;-50
2021/08/18 15:49:54;;;;;;;5.40;2.10;;;33.10;55.80;;;;;;5029798;28;20048;-53
2021/08/18 15:52:59;;;;;;;8.95;2.33;;;33.00;55.80;;;;;;5030230;28;20048;-52
2021/08/18 15:56:05;;;;;;;3.15;1.80;;;32.70;56.50;;;;;;5030153;28;20039;-52
2021/08/18 15:59:09;;;;;;;9.15;1.98;;;32.30;56.90;;;;;;5029742;28;20403;-51
2021/08/18 16:02:14;;;;;;;7.43;1.90;;;32.20;57.20;;;;;;5029824;28;20053;-50
2021/08/18 16:05:18;;;;;;;4.90;2.22;;;31.90;57.70;;;;;;5030312;28;20048;-53